Time;durP1;ratioP1;P1;durP2;ratioP2;P2;SDS_P1;SDS_P2;PMS_P1;PMS_P2;Temp;Humidity;BMP_temperature;BMP_pressure;BME280_temperature;BME280_humidity;BME280_pressure;Samples;Min_cycle;Max_cycle;Signal;HPM_P1;HPM_P2
2022/10/24 00:02:11;;;;;;;;;;;10.70;79.50;;;9.63;nan;96910.41;5086840;28;19920;-82
2022/10/24 00:04:40;;;;;;;;;;;10.60;79.50;;;9.63;nan;96910.41;5069482;28;19927;-82
2022/10/24 00:07:08;;;;;;;;;;;10.60;79.50;;;9.63;nan;96913.16;5069951;28;19920;-82
2022/10/24 00:09:36;;;;;;;;;;;10.60;79.30;;;9.63;nan;96905.78;5069769;28;19920;-82
2022/10/24 00:12:04;;;;;;;;;;;10.60;79.40;;;9.62;nan;96908.75;5069919;28;20230;-82
2022/10/24 00:14:33;;;;;;;;;;;10.60;79.40;;;9.63;nan;96915.88;5069190;28;19921;-82
2022/10/24 00:17:01;;;;;;;;;;;10.60;79.50;;;9.62;nan;96906.88;5069708;28;19920;-82
2022/10/24 00:19:30;;;;;;;;;;;10.60;79.50;;;9.62;nan;96906.03;5070877;28;19978;-82
2022/10/24 00:21:58;;;;;;;;;;;10.60;79.50;;;9.62;nan;96908.75;5069825;28;19921;-82
2022/10/24 00:24:26;;;;;;;;;;;10.60;79.50;;;9.63;nan;96924.09;5085991;28;20204;-82
2022/10/24 00:26:54;;;;;;;;;;;10.60;79.50;;;9.62;nan;96917.81;5070737;28;19921;-82
2022/10/24 00:29:22;;;;;;;;;;;10.60;79.50;;;9.61;nan;96907.94;5053080;28;19927;-82
2022/10/24 00:31:50;;;;;;;;;;;10.60;79.50;;;9.61;nan;96907.94;5069464;28;19921;-82
2022/10/24 00:34:18;;;;;;;;;;;10.60;79.60;;;9.61;nan;96905.19;5070189;28;19927;-82
2022/10/24 00:36:47;;;;;;;;;;;10.60;79.50;;;9.61;nan;96898.91;5052732;28;19920;-82
2022/10/24 00:39:15;;;;;;;;;;;10.60;79.80;;;9.62;nan;96911.47;5070404;28;20234;-82
2022/10/24 00:41:43;;;;;;;;;;;10.60;79.70;;;9.60;nan;96906.28;5073042;28;19920;-82
2022/10/24 00:44:22;;;;;;;;;;;10.60;79.60;;;9.60;nan;96910.94;5072440;28;19921;-82
2022/10/24 00:46:53;;;;;;;;;;;10.60;79.60;;;9.59;nan;96910.09;5073978;28;19920;-82
2022/10/24 00:49:23;;;;;;;;;;;10.60;79.70;;;9.61;nan;96907.13;5073104;28;19921;-82
2022/10/24 00:51:54;;;;;;;;;;;10.60;79.70;;;9.60;nan;96908.19;5072748;28;19920;-82
2022/10/24 00:54:22;;;;;;;;;;;10.60;79.70;;;9.60;nan;96900.00;5055656;28;19920;-82
2022/10/24 00:56:55;;;;;;;;;;;10.60;79.80;;;9.60;nan;96894.53;5055808;28;19920;-82
2022/10/24 00:59:23;;;;;;;;;;;10.60;79.80;;;9.59;nan;96895.59;5072567;28;19920;-82
2022/10/24 01:01:51;;;;;;;;;;;10.60;79.80;;;9.59;nan;96901.06;5072847;28;20111;-82
2022/10/24 01:04:19;;;;;;;;;;;10.60;79.80;;;9.59;nan;96901.06;5055387;28;19927;-82
2022/10/24 01:06:50;;;;;;;;;;;10.60;79.70;;;9.59;nan;96898.34;5072632;28;19924;-82
2022/10/24 01:09:36;;;;;;;;;;;10.60;79.60;;;9.58;nan;96897.50;5073695;28;19921;-82
2022/10/24 01:12:10;;;;;;;;;;;10.60;79.60;;;9.58;nan;96892.03;5072628;28;19920;-82
2022/10/24 01:14:45;;;;;;;;;;;10.60;79.80;;;9.59;nan;96884.66;5072001;28;19921;-82
2022/10/24 01:17:14;;;;;;;;;;;10.60;79.80;;;9.56;nan;96890.63;5072252;28;19928;-82
2022/10/24 01:20:08;;;;;;;;;;;10.60;79.70;;;9.58;nan;96885.75;5055685;28;20124;-82
2022/10/24 01:22:38;;;;;;;;;;;10.60;79.80;;;9.58;nan;96880.28;5013406;28;19920;-82
2022/10/24 01:25:09;;;;;;;;;;;10.60;79.60;;;9.58;nan;96874.81;5055138;28;19920;-82
2022/10/24 01:27:48;;;;;;;;;;;10.60;79.70;;;9.58;nan;96869.34;5073420;28;19958;-82
2022/10/24 01:30:17;;;;;;;;;;;10.60;80.50;;;9.57;nan;96870.41;5072228;28;19927;-82
2022/10/24 01:32:48;;;;;;;;;;;10.60;79.80;;;9.57;nan;96875.88;5072215;28;20120;-82
2022/10/24 01:35:24;;;;;;;;;;;10.60;79.80;;;9.57;nan;96873.97;5088499;28;19920;-82
2022/10/24 01:37:54;;;;;;;;;;;10.60;79.80;;;9.57;nan;96873.97;5072225;28;19920;-82
2022/10/24 01:40:26;;;;;;;;;;;10.60;79.90;;;9.57;nan;96873.16;5055382;28;19921;-82
2022/10/24 01:42:54;;;;;;;;;;;10.60;80.00;;;9.56;nan;96866.84;5072290;28;20117;-82
2022/10/24 01:45:25;;;;;;;;;;;10.60;80.00;;;9.56;nan;96871.50;5071416;28;19920;-82
2022/10/24 01:47:54;;;;;;;;;;;10.60;79.80;;;9.56;nan;96872.31;5055297;28;19927;-82
2022/10/24 01:50:22;;;;;;;;;;;10.60;79.80;;;9.56;nan;96868.75;5071505;28;20116;-82
2022/10/24 01:52:50;;;;;;;;;;;10.60;79.90;;;9.55;nan;96867.94;5072121;28;19927;-82
2022/10/24 01:55:19;;;;;;;;;;;10.60;79.90;;;9.55;nan;96869.81;5072599;28;19927;-82
2022/10/24 01:57:47;;;;;;;;;;;10.50;80.00;;;9.55;nan;96865.22;5071555;28;19921;-82
2022/10/24 02:00:16;;;;;;;;;;;10.60;79.80;;;9.54;nan;96862.69;5071847;28;19927;-82
2022/10/24 02:02:47;;;;;;;;;;;10.60;80.00;;;9.55;nan;96858.91;5073074;28;19927;-82
2022/10/24 02:05:17;;;;;;;;;;;10.50;80.70;;;9.55;nan;96861.63;5071187;28;19920;-82
2022/10/24 02:07:46;;;;;;;;;;;10.50;80.00;;;9.54;nan;96862.69;5072812;28;19921;-82
2022/10/24 02:10:16;;;;;;;;;;;10.50;80.00;;;9.54;nan;96863.53;5071581;28;19927;-82
2022/10/24 02:12:46;;;;;;;;;;;10.50;79.80;;;9.54;nan;96860.81;5054944;28;19929;-83
2022/10/24 02:15:16;;;;;;;;;;;10.50;79.70;;;9.54;nan;96860.81;5070629;28;19921;-82
2022/10/24 02:17:46;;;;;;;;;;;10.50;79.80;;;9.54;nan;96868.16;5054673;28;19921;-82
2022/10/24 02:20:14;;;;;;;;;;;10.50;79.80;;;9.54;nan;96858.06;5071562;28;20208;-82
2022/10/24 02:22:45;;;;;;;;;;;10.50;79.80;;;9.52;nan;96849.28;5072635;28;19921;-82
2022/10/24 02:25:17;;;;;;;;;;;10.50;79.60;;;9.54;nan;96862.69;5087702;28;19926;-82
2022/10/24 02:27:48;;;;;;;;;;;10.50;79.80;;;9.53;nan;96856.41;5071762;28;19921;-82
2022/10/24 02:30:17;;;;;;;;;;;10.50;79.80;;;9.52;nan;96855.56;5070315;28;19927;-82
2022/10/24 02:32:48;;;;;;;;;;;10.50;79.90;;;9.52;nan;96852.84;5071399;28;19920;-82
2022/10/24 02:35:17;;;;;;;;;;;10.50;79.80;;;9.51;nan;96853.91;5070786;28;20127;-82
2022/10/24 02:37:46;;;;;;;;;;;10.50;79.60;;;9.51;nan;96851.19;5087938;28;19935;-82
2022/10/24 02:40:14;;;;;;;;;;;10.50;79.80;;;9.51;nan;96842.97;5072290;28;19920;-82
2022/10/24 02:42:42;;;;;;;;;;;10.50;79.60;;;9.52;nan;96852.84;5071038;28;19927;-82
2022/10/24 02:45:10;;;;;;;;;;;10.50;79.70;;;9.50;nan;96846.78;5070592;28;20147;-82
2022/10/24 02:47:38;;;;;;;;;;;10.50;79.80;;;9.50;nan;96844.06;5087816;28;19927;-82
2022/10/24 02:50:09;;;;;;;;;;;10.50;79.80;;;9.50;nan;96852.25;5054364;28;19920;-82
2022/10/24 02:52:37;;;;;;;;;;;10.50;79.80;;;9.51;nan;96847.63;5070919;28;19920;-82
2022/10/24 02:55:06;;;;;;;;;;;10.50;79.80;;;9.51;nan;96848.44;5070463;28;19921;-82
2022/10/24 02:57:34;;;;;;;;;;;10.50;79.60;;;9.50;nan;96846.78;5087535;28;19921;-82
2022/10/24 03:00:02;;;;;;;;;;;10.50;79.70;;;9.50;nan;96846.78;5072033;28;20204;-82
2022/10/24 03:02:30;;;;;;;;;;;10.50;79.70;;;9.50;nan;96837.78;5069778;28;19920;-82
2022/10/24 03:04:58;;;;;;;;;;;10.50;79.80;;;9.50;nan;96844.06;5053680;28;19926;-82
2022/10/24 03:07:27;;;;;;;;;;;10.50;79.70;;;9.49;nan;96850.59;5070383;28;19920;-82
2022/10/24 03:09:55;;;;;;;;;;;10.50;79.60;;;9.50;nan;96840.50;5070749;28;19943;-82
2022/10/24 03:12:25;;;;;;;;;;;10.50;79.80;;;9.49;nan;96845.13;5070725;28;19920;-82
2022/10/24 03:14:53;;;;;;;;;;;10.50;79.70;;;9.49;nan;96850.59;5053394;28;20235;-82
2022/10/24 03:17:22;;;;;;;;;;;10.50;79.70;;;9.50;nan;96851.44;5070686;28;19927;-82
2022/10/24 03:19:50;;;;;;;;;;;10.50;79.70;;;9.49;nan;96850.59;5092098;28;19924;-82
2022/10/24 03:22:18;;;;;;;;;;;10.50;79.80;;;9.50;nan;96856.91;5091762;28;19920;-82
2022/10/24 03:24:47;;;;;;;;;;;10.50;79.90;;;9.48;nan;96848.97;5070301;28;19920;-83
2022/10/24 03:27:15;;;;;;;;;;;10.50;79.90;;;9.49;nan;96858.78;5053823;28;19920;-82
2022/10/24 03:29:43;;;;;;;;;;;10.50;79.80;;;9.50;nan;96856.91;5070389;28;19920;-82
2022/10/24 03:32:11;;;;;;;;;;;10.50;79.80;;;9.49;nan;96861.53;5070507;28;20125;-83
2022/10/24 03:34:39;;;;;;;;;;;10.50;79.70;;;9.49;nan;96850.59;5069963;28;19920;-82
2022/10/24 03:37:07;;;;;;;;;;;10.50;79.90;;;9.49;nan;96855.25;5071374;28;20433;-83
2022/10/24 03:39:35;;;;;;;;;;;10.50;79.80;;;9.49;nan;96847.88;5070203;28;19927;-82
2022/10/24 03:42:05;;;;;;;;;;;10.50;79.80;;;9.48;nan;96848.97;5070242;28;19927;-83
2022/10/24 03:44:33;;;;;;;;;;;10.50;79.80;;;9.48;nan;96853.59;5069671;28;20266;-82
2022/10/24 03:47:00;;;;;;;;;;;10.50;79.80;;;9.48;nan;96843.50;5071205;28;19920;-82
2022/10/24 03:49:29;;;;;;;;;;;10.50;79.90;;;9.48;nan;96838.03;5053521;28;20209;-83
2022/10/24 03:51:57;;;;;;;;;;;10.50;79.70;;;9.48;nan;96838.03;5053432;28;19920;-83
2022/10/24 03:54:25;;;;;;;;;;;10.50;79.80;;;9.48;nan;96838.03;5069490;28;19920;-83
2022/10/24 03:56:53;;;;;;;;;;;10.50;80.00;;;9.48;nan;96845.38;5069989;28;19921;-83
2022/10/24 03:59:22;;;;;;;;;;;10.50;79.60;;;9.48;nan;96857.16;5069898;28;19920;-83
2022/10/24 04:01:50;;;;;;;;;;;10.50;79.80;;;9.48;nan;96848.97;5053401;28;19921;-82
2022/10/24 04:04:18;;;;;;;;;;;10.50;79.80;;;9.48;nan;96848.97;5069299;28;19921;-84
2022/10/24 04:06:46;;;;;;;;;;;10.50;79.80;;;9.46;nan;96842.91;5070008;28;20209;-83
2022/10/24 04:09:14;;;;;;;;;;;10.50;79.90;;;9.46;nan;96851.13;5066582;28;19935;-83
2022/10/24 04:11:42;;;;;;;;;;;10.50;79.90;;;9.46;nan;96848.38;5049891;28;20117;-83
2022/10/24 04:14:10;;;;;;;;;;;10.50;79.90;;;9.46;nan;96842.91;5060363;28;19920;-82
2022/10/24 04:16:39;;;;;;;;;;;10.50;79.90;;;9.46;nan;96851.13;5073558;28;19927;-83
2022/10/24 04:19:09;;;;;;;;;;;10.50;79.80;;;9.46;nan;96845.66;5074491;28;19934;-83
2022/10/24 04:21:37;;;;;;;;;;;10.50;79.90;;;9.46;nan;96855.72;5073457;28;19924;-82
2022/10/24 04:24:05;;;;;;;;;;;10.50;80.00;;;9.46;nan;96856.59;5072885;28;19920;-82
2022/10/24 04:26:33;;;;;;;;;;;10.50;80.00;;;9.45;nan;96849.44;5073180;28;19927;-83
2022/10/24 04:29:01;;;;;;;;;;;10.50;79.90;;;9.45;nan;96854.91;5073351;28;20205;-83
2022/10/24 04:31:29;;;;;;;;;;;10.50;79.80;;;9.45;nan;96860.38;5090161;28;19920;-83
2022/10/24 04:33:59;;;;;;;;;;;10.50;79.90;;;9.45;nan;96851.34;5072677;28;19921;-83
2022/10/24 04:36:27;;;;;;;;;;;10.50;79.90;;;9.45;nan;96848.59;5056273;28;19921;-83
2022/10/24 04:38:55;;;;;;;;;;;10.50;79.90;;;9.44;nan;96847.78;5056257;28;19926;-82
2022/10/24 04:41:23;;;;;;;;;;;10.50;79.90;;;9.45;nan;96849.44;5056324;28;19927;-83
2022/10/24 04:43:52;;;;;;;;;;;10.50;79.80;;;9.45;nan;96848.59;5073598;28;20204;-83
2022/10/24 04:46:20;;;;;;;;;;;10.50;79.90;;;9.44;nan;96850.53;5089726;28;19926;-82
2022/10/24 04:48:48;;;;;;;;;;;10.50;79.90;;;9.44;nan;96847.78;5074177;28;19920;-83
2022/10/24 04:51:17;;;;;;;;;;;10.50;80.00;;;9.45;nan;96843.16;5056323;28;19931;-82
2022/10/24 04:53:45;;;;;;;;;;;10.50;80.00;;;9.44;nan;96847.78;5089193;28;20205;-83
2022/10/24 04:56:13;;;;;;;;;;;10.50;79.80;;;9.45;nan;96848.59;5072711;28;19927;-82
2022/10/24 04:58:41;;;;;;;;;;;10.40;79.90;;;9.44;nan;96845.06;5072621;28;19927;-82
2022/10/24 05:01:09;;;;;;;;;;;10.40;79.80;;;9.42;nan;96832.72;5072652;28;19926;-82
2022/10/24 05:03:37;;;;;;;;;;;10.50;79.80;;;9.44;nan;96839.59;5072114;28;19920;-82
2022/10/24 05:06:05;;;;;;;;;;;10.50;79.90;;;9.44;nan;96836.88;5072789;28;20208;-83
2022/10/24 05:08:35;;;;;;;;;;;10.40;79.80;;;9.44;nan;96847.78;5072523;28;19927;-83
2022/10/24 05:11:03;;;;;;;;;;;10.50;79.90;;;9.43;nan;96846.13;5072740;28;19927;-83
2022/10/24 05:13:31;;;;;;;;;;;10.40;79.60;;;9.45;nan;96851.34;5072220;28;19920;-83
2022/10/24 05:15:59;;;;;;;;;;;10.50;79.80;;;9.44;nan;96850.53;5089312;28;19943;-82
2022/10/24 05:18:27;;;;;;;;;;;10.50;79.80;;;9.47;nan;96858.25;5072255;28;19924;-83
2022/10/24 05:20:56;;;;;;;;;;;10.50;79.80;;;9.48;nan;96859.91;5055781;28;19920;-82
2022/10/24 05:23:24;;;;;;;;;;;10.50;79.60;;;9.48;nan;96857.16;5073031;28;19920;-83
2022/10/24 05:25:54;;;;;;;;;;;10.50;79.60;;;9.49;nan;96863.44;5071456;28;20216;-82
2022/10/24 05:28:22;;;;;;;;;;;10.50;79.60;;;9.51;nan;96862.13;5072203;28;19926;-83
2022/10/24 05:30:49;;;;;;;;;;;10.50;79.50;;;9.54;nan;96862.69;5055553;28;19921;-82
2022/10/24 05:33:17;;;;;;;;;;;10.50;79.50;;;9.55;nan;96869.81;5071961;28;19920;-83
2022/10/24 05:35:45;;;;;;;;;;;10.60;79.30;;;9.56;nan;96874.22;5073259;28;19920;-83
2022/10/24 05:38:13;;;;;;;;;;;10.60;79.30;;;9.56;nan;96874.22;5072062;28;19927;-83
2022/10/24 05:40:41;;;;;;;;;;;10.60;79.20;;;9.56;nan;96871.50;5073196;28;19921;-83
2022/10/24 05:43:11;;;;;;;;;;;10.60;79.20;;;9.59;nan;96874.53;5072072;28;19926;-83
2022/10/24 05:45:39;;;;;;;;;;;10.60;79.20;;;9.61;nan;96871.59;5071701;28;20205;-83
2022/10/24 05:48:07;;;;;;;;;;;10.60;79.20;;;9.62;nan;96875.94;5073130;28;19927;-82
2022/10/24 05:50:35;;;;;;;;;;;10.70;79.20;;;9.64;nan;96874.66;5073110;28;19925;-83
2022/10/24 05:53:03;;;;;;;;;;;10.70;79.00;;;9.66;nan;96871.66;5073061;28;19920;-83
2022/10/24 05:55:32;;;;;;;;;;;10.70;78.80;;;9.67;nan;96873.31;5076357;28;19920;-83
2022/10/24 05:58:00;;;;;;;;;;;10.70;78.70;;;9.67;nan;96879.63;5091745;28;19926;-83
2022/10/24 06:00:32;;;;;;;;;;;10.70;78.60;;;9.69;nan;96879.38;5091798;28;19927;-83
2022/10/24 06:03:00;;;;;;;;;;;10.70;78.70;;;9.71;nan;96884.56;5091986;28;20120;-83
2022/10/24 06:05:28;;;;;;;;;;;10.70;78.70;;;9.73;nan;96872.34;5091393;28;19927;-83
2022/10/24 06:07:56;;;;;;;;;;;10.80;78.60;;;9.77;nan;96878.13;5092914;28;19924;-83
2022/10/24 06:10:24;;;;;;;;;;;10.80;78.30;;;9.79;nan;96871.31;5074893;28;19934;-83
2022/10/24 06:12:52;;;;;;;;;;;10.80;78.30;;;9.85;nan;96876.88;5108853;28;19920;-82
2022/10/24 06:15:20;;;;;;;;;;;10.80;78.10;;;9.89;nan;96881.59;5091131;28;19920;-83
2022/10/24 06:17:49;;;;;;;;;;;10.90;78.10;;;9.91;nan;96867.66;5091707;28;19920;-82
2022/10/24 06:20:18;;;;;;;;;;;10.90;77.90;;;9.95;nan;96868.84;5091506;28;20260;-83
2022/10/24 06:22:45;;;;;;;;;;;10.90;78.00;;;9.96;nan;96871.31;5091701;28;19926;-83
2022/10/24 06:25:14;;;;;;;;;;;11.00;77.70;;;9.99;nan;96875.47;5091002;28;19920;-83
2022/10/24 06:27:41;;;;;;;;;;;11.00;77.90;;;10.03;nan;96873.88;5091610;28;19920;-83
2022/10/24 06:30:10;;;;;;;;;;;11.00;77.70;;;10.07;nan;96866.81;5091520;28;19920;-83
2022/10/24 06:32:39;;;;;;;;;;;11.10;78.00;;;10.10;nan;96871.81;5091491;28;19927;-84
2022/10/24 06:35:11;;;;;;;;;;;11.10;77.90;;;10.14;nan;96867.47;5090820;28;20209;-83
2022/10/24 06:37:39;;;;;;;;;;;11.20;77.90;;;10.19;nan;96874.09;5091254;28;19924;-83
2022/10/24 06:40:08;;;;;;;;;;;11.20;78.10;;;10.22;nan;96876.34;5074385;28;20120;-83
2022/10/24 06:42:36;;;;;;;;;;;11.20;78.20;;;10.24;nan;96876.94;5091534;28;19920;-83
2022/10/24 06:45:05;;;;;;;;;;;11.20;78.40;;;10.22;nan;96871.69;5107817;28;19921;-83
2022/10/24 06:47:33;;;;;;;;;;;11.20;78.60;;;10.23;nan;96883.47;5092371;28;19920;-83
2022/10/24 06:50:01;;;;;;;;;;;11.20;78.50;;;10.25;nan;96882.13;5091126;28;19926;-84
2022/10/24 06:52:31;;;;;;;;;;;11.30;78.80;;;10.28;nan;96889.00;5091106;28;19926;-84
2022/10/24 06:54:58;;;;;;;;;;;11.30;78.80;;;10.30;nan;96895.06;5090588;28;19927;-83
2022/10/24 06:57:26;;;;;;;;;;;11.30;78.80;;;10.34;nan;96893.47;5092113;28;20201;-83
2022/10/24 06:59:55;;;;;;;;;;;11.30;79.00;;;10.38;nan;96899.31;5090974;28;20250;-84
2022/10/24 07:02:23;;;;;;;;;;;11.30;78.90;;;10.40;nan;96897.16;5090840;28;19927;-84
2022/10/24 07:04:51;;;;;;;;;;;11.40;78.80;;;10.39;nan;96899.03;5090422;28;19920;-84
2022/10/24 07:07:20;;;;;;;;;;;11.40;78.80;;;10.42;nan;96897.72;5090776;28;19926;-84
2022/10/24 07:09:53;;;;;;;;;;;11.40;78.60;;;10.43;nan;96892.00;5090871;28;19920;-83
2022/10/24 07:12:22;;;;;;;;;;;11.40;78.50;;;10.44;nan;96893.66;5090843;28;19920;-83
2022/10/24 07:14:50;;;;;;;;;;;11.40;78.60;;;10.44;nan;96888.19;5090211;28;19942;-83
2022/10/24 07:17:19;;;;;;;;;;;11.40;78.50;;;10.46;nan;96895.31;5107757;28;19927;-83
2022/10/24 07:19:52;;;;;;;;;;;11.50;78.60;;;10.44;nan;96893.66;5091672;28;19920;-84
2022/10/24 07:22:20;;;;;;;;;;;11.50;78.50;;;10.44;nan;96893.66;5090622;28;19927;-83
2022/10/24 07:24:53;;;;;;;;;;;11.40;78.40;;;10.44;nan;96903.78;5090029;28;19920;-83
2022/10/24 07:27:21;;;;;;;;;;;11.40;78.50;;;10.43;nan;96892.00;5091735;28;19927;-84
2022/10/24 07:29:50;;;;;;;;;;;11.40;78.40;;;10.42;nan;96887.59;5107635;28;19927;-84
2022/10/24 07:32:18;;;;;;;;;;;11.40;78.40;;;10.43;nan;96892.00;5107460;28;19924;-84
2022/10/24 07:34:46;;;;;;;;;;;11.40;78.40;;;10.43;nan;96886.53;5106996;28;20101;-83
2022/10/24 07:37:14;;;;;;;;;;;11.40;78.30;;;10.44;nan;96888.19;5090275;28;20212;-83
2022/10/24 07:39:42;;;;;;;;;;;11.40;78.40;;;10.44;nan;96890.91;5090422;28;19927;-83
2022/10/24 07:42:12;;;;;;;;;;;11.40;78.40;;;10.44;nan;96888.19;5090310;28;19920;-83
2022/10/24 07:44:40;;;;;;;;;;;11.40;78.40;;;10.46;nan;96878.88;5089755;28;19920;-84
2022/10/24 07:47:08;;;;;;;;;;;11.40;78.40;;;10.49;nan;96884.69;5090256;28;19920;-83
2022/10/24 07:49:36;;;;;;;;;;;11.40;78.30;;;10.50;nan;96877.31;5089908;28;19920;-84
2022/10/24 07:52:05;;;;;;;;;;;11.50;78.50;;;10.52;nan;96883.38;5091360;28;19927;-84
2022/10/24 07:54:33;;;;;;;;;;;11.50;78.40;;;10.54;nan;96878.44;5089531;28;19926;-84
2022/10/24 07:57:01;;;;;;;;;;;11.50;78.30;;;10.56;nan;96879.00;5073198;28;19920;-84
2022/10/24 07:59:30;;;;;;;;;;;11.50;78.20;;;10.60;nan;96874.69;5107183;28;19926;-84
2022/10/24 08:01:58;;;;;;;;;;;11.50;78.00;;;10.61;nan;96870.03;5073329;28;20238;-84
2022/10/24 08:04:27;;;;;;;;;;;11.60;77.90;;;10.63;nan;96879.69;5049535;28;19921;-84
2022/10/24 08:06:56;;;;;;;;;;;11.60;77.90;;;10.65;nan;96876.66;5033030;28;19929;-84
2022/10/24 08:09:25;;;;;;;;;;;11.60;77.80;;;10.66;nan;96886.53;5050000;28;19921;-84
2022/10/24 08:11:53;;;;;;;;;;;11.60;77.80;;;10.66;nan;96881.88;5083293;28;19921;-84
2022/10/24 08:14:21;;;;;;;;;;;11.60;77.70;;;10.67;nan;96875.31;5049521;28;19921;-84
2022/10/24 08:16:50;;;;;;;;;;;11.60;77.60;;;10.68;nan;96876.97;5083251;28;20120;-84
2022/10/24 08:19:18;;;;;;;;;;;11.60;77.60;;;10.69;nan;96875.91;5066386;28;19920;-84
2022/10/24 08:21:46;;;;;;;;;;;11.70;77.80;;;10.69;nan;96872.34;5050864;28;19921;-84
2022/10/24 08:24:15;;;;;;;;;;;11.70;77.70;;;10.69;nan;96867.69;5082665;28;20120;-84
2022/10/24 08:26:43;;;;;;;;;;;11.70;77.60;;;10.69;nan;96875.09;5049736;28;19921;-84
2022/10/24 08:29:13;;;;;;;;;;;11.70;77.70;;;10.73;nan;96879.78;5050929;28;19927;-84
2022/10/24 08:31:42;;;;;;;;;;;11.70;77.80;;;10.74;nan;96880.59;5049948;28;19928;-84
2022/10/24 08:34:13;;;;;;;;;;;11.70;77.60;;;10.75;nan;96882.28;5049024;28;20121;-84
2022/10/24 08:36:41;;;;;;;;;;;11.70;77.70;;;10.76;nan;96877.63;5032946;28;20212;-84
2022/10/24 08:39:09;;;;;;;;;;;11.70;77.70;;;10.76;nan;96881.19;5049774;28;19942;-84
2022/10/24 08:41:38;;;;;;;;;;;11.70;77.70;;;10.76;nan;96874.91;5049603;28;19927;-84
2022/10/24 08:44:16;;;;;;;;;;;11.70;77.70;;;10.76;nan;96872.97;5049061;28;20235;-84
2022/10/24 08:46:47;;;;;;;;;;;11.70;77.80;;;10.77;nan;96879.28;5049206;28;19920;-84
2022/10/24 08:49:22;;;;;;;;;;;11.80;77.70;;;10.77;nan;96874.63;5049490;28;19925;-84
2022/10/24 08:51:52;;;;;;;;;;;11.70;77.70;;;10.78;nan;96873.56;5049490;28;19921;-84
2022/10/24 08:54:22;;;;;;;;;;;11.80;77.60;;;10.78;nan;96875.47;5032396;28;19927;-84
2022/10/24 08:56:51;;;;;;;;;;;11.80;77.60;;;10.81;nan;96874.94;5049091;28;19920;-84
2022/10/24 08:59:19;;;;;;;;;;;11.80;77.50;;;10.82;nan;96874.69;5032825;28;19921;-84
2022/10/24 09:01:48;;;;;;;;;;;11.80;77.40;;;10.82;nan;96877.44;5052306;28;19921;-84
2022/10/24 09:04:20;;;;;;;;;;;11.80;77.40;;;10.82;nan;96871.97;5052082;28;19921;-84
2022/10/24 09:06:48;;;;;;;;;;;11.80;77.40;;;10.82;nan;96873.84;5052617;28;19921;-84
2022/10/24 09:09:19;;;;;;;;;;;11.80;77.30;;;10.82;nan;96876.59;5069443;28;20235;-84
2022/10/24 09:11:51;;;;;;;;;;;11.80;77.30;;;10.81;nan;96875.78;5069137;28;19925;-84
2022/10/24 09:14:19;;;;;;;;;;;11.80;77.40;;;10.82;nan;96862.91;5052020;28;19927;-84
2022/10/24 09:16:50;;;;;;;;;;;11.80;77.30;;;10.81;nan;96869.47;5052287;28;19920;-84
2022/10/24 09:19:20;;;;;;;;;;;11.80;77.50;;;10.79;nan;96858.78;5052430;28;19921;-84
2022/10/24 09:21:49;;;;;;;;;;;11.80;77.50;;;10.81;nan;96853.03;5069317;28;19953;-84
2022/10/24 09:24:29;;;;;;;;;;;11.80;77.40;;;10.81;nan;96853.03;5068669;28;19921;-84
2022/10/24 09:26:59;;;;;;;;;;;11.80;77.30;;;10.81;nan;96859.34;5052321;28;19927;-83
2022/10/24 09:29:28;;;;;;;;;;;11.80;77.30;;;10.82;nan;96854.69;5069092;28;20102;-84
2022/10/24 09:31:56;;;;;;;;;;;11.80;77.30;;;10.82;nan;96851.94;5035676;28;20212;-84
2022/10/24 09:34:26;;;;;;;;;;;11.80;77.40;;;10.82;nan;96851.94;5035149;28;19927;-84
2022/10/24 09:36:54;;;;;;;;;;;11.80;77.40;;;10.82;nan;96854.69;5068784;28;19921;-84
2022/10/24 09:39:24;;;;;;;;;;;11.80;77.30;;;10.81;nan;96842.06;5068853;28;19921;-84
2022/10/24 09:41:52;;;;;;;;;;;11.80;77.30;;;10.81;nan;96844.81;5035479;28;19927;-84
2022/10/24 09:44:34;;;;;;;;;;;11.80;77.40;;;10.81;nan;96831.13;5078965;28;20294;-84
2022/10/24 09:47:03;;;;;;;;;;;11.80;77.30;;;10.81;nan;96842.06;5092028;28;19920;-84
2022/10/24 09:49:35;;;;;;;;;;;11.80;77.30;;;10.79;nan;96827.81;5092035;28;19920;-84
2022/10/24 09:52:05;;;;;;;;;;;11.80;77.50;;;10.79;nan;96833.28;5075245;28;19927;-84
2022/10/24 09:54:34;;;;;;;;;;;11.80;77.40;;;10.79;nan;96827.81;5091737;28;19920;-84
2022/10/24 09:57:05;;;;;;;;;;;11.80;77.50;;;10.78;nan;96826.19;5091790;28;19926;-84
2022/10/24 09:59:36;;;;;;;;;;;11.80;77.50;;;10.77;nan;96821.78;5092944;28;19920;-84
2022/10/24 10:02:24;;;;;;;;;;;11.80;77.60;;;10.75;nan;96816.53;5092945;28;19921;-84
2022/10/24 10:05:18;;;;;;;;;;;11.80;77.60;;;10.75;nan;96811.06;5091398;28;20208;-84
2022/10/24 10:07:48;;;;;;;;;;;11.80;77.60;;;10.75;nan;96805.59;5075011;28;19927;-84
2022/10/24 10:10:28;;;;;;;;;;;11.80;77.60;;;10.75;nan;96802.84;5091767;28;19926;-84
2022/10/24 10:13:03;;;;;;;;;;;11.80;77.60;;;10.75;nan;96813.81;5108698;28;20120;-84
2022/10/24 10:15:34;;;;;;;;;;;11.80;77.70;;;10.76;nan;96811.91;5091188;28;19920;-84
2022/10/24 10:18:04;;;;;;;;;;;11.80;77.60;;;10.76;nan;96806.44;5074768;28;19920;-84
2022/10/24 10:20:37;;;;;;;;;;;11.80;77.60;;;10.76;nan;96798.22;5091805;28;20017;-84
2022/10/24 10:23:23;;;;;;;;;;;11.80;77.60;;;10.76;nan;96795.47;5091482;28;19920;-84
2022/10/24 10:26:01;;;;;;;;;;;11.80;77.60;;;10.76;nan;96798.22;5074904;28;19927;-84
2022/10/24 10:28:29;;;;;;;;;;;11.80;77.70;;;10.74;nan;96799.28;5074767;28;19926;-84
2022/10/24 10:30:58;;;;;;;;;;;11.80;77.70;;;10.74;nan;96799.28;5074674;28;19926;-84
2022/10/24 10:33:29;;;;;;;;;;;11.80;77.70;;;10.74;nan;96799.28;5107741;28;19920;-84
2022/10/24 10:36:00;;;;;;;;;;;11.80;77.60;;;10.73;nan;96792.16;5091406;28;19920;-84
2022/10/24 10:38:43;;;;;;;;;;;11.80;77.60;;;10.73;nan;96780.38;5092439;28;19926;-84
2022/10/24 10:41:16;;;;;;;;;;;11.80;77.60;;;10.74;nan;96779.28;5074498;28;20119;-84
2022/10/24 10:43:48;;;;;;;;;;;11.80;77.60;;;10.73;nan;96775.72;5090744;28;20234;-84
2022/10/24 10:46:20;;;;;;;;;;;11.80;77.70;;;10.73;nan;96778.47;5074758;28;19920;-84
2022/10/24 10:48:57;;;;;;;;;;;11.80;77.80;;;10.73;nan;96774.88;5074505;28;19920;-84
2022/10/24 10:51:32;;;;;;;;;;;11.70;77.80;;;10.72;nan;96765.88;5108220;28;19920;-84
2022/10/24 10:54:03;;;;;;;;;;;11.70;77.80;;;10.71;nan;96761.47;5090550;28;19920;-84
2022/10/24 10:56:33;;;;;;;;;;;11.70;77.90;;;10.70;nan;96759.81;5090879;28;19924;-84
2022/10/24 10:59:08;;;;;;;;;;;11.70;77.80;;;10.70;nan;96753.53;5090940;28;19920;-84
2022/10/24 11:01:40;;;;;;;;;;;11.70;77.90;;;10.70;nan;96746.13;5074193;28;20234;-84
2022/10/24 11:04:13;;;;;;;;;;;11.70;78.00;;;10.69;nan;96746.38;5090367;28;20097;-84
2022/10/24 11:06:46;;;;;;;;;;;11.70;78.00;;;10.68;nan;96748.28;5090848;28;19930;-84
2022/10/24 11:09:28;;;;;;;;;;;11.70;78.00;;;10.68;nan;96745.53;5090910;28;19920;-84
2022/10/24 11:12:01;;;;;;;;;;;11.70;78.00;;;10.65;nan;96746.06;5090744;28;19926;-84
2022/10/24 11:14:30;;;;;;;;;;;11.70;78.10;;;10.66;nan;96750.44;5090506;28;19920;-84
2022/10/24 11:17:01;;;;;;;;;;;11.70;78.10;;;10.66;nan;96741.41;5090673;28;19926;-84
2022/10/24 11:19:32;;;;;;;;;;;11.70;78.20;;;10.65;nan;96737.03;5074027;28;19926;-84
2022/10/24 11:22:03;;;;;;;;;;;11.70;78.30;;;10.64;nan;96732.63;5090451;28;20220;-84
2022/10/24 11:24:33;;;;;;;;;;;11.70;78.30;;;10.63;nan;96740.03;5089776;28;19920;-84
2022/10/24 11:27:03;;;;;;;;;;;11.70;78.30;;;10.62;nan;96730.16;5090445;28;19978;-84
2022/10/24 11:29:33;;;;;;;;;;;11.60;78.20;;;10.62;nan;96734.78;5090770;28;19942;-84
2022/10/24 11:32:02;;;;;;;;;;;11.60;79.00;;;10.61;nan;96731.25;5077355;28;19921;-84
2022/10/24 11:34:33;;;;;;;;;;;11.60;78.30;;;10.61;nan;96728.50;5086634;28;19927;-84
2022/10/24 11:37:04;;;;;;;;;;;11.60;78.30;;;10.60;nan;96732.31;5070251;28;19921;-84
2022/10/24 11:39:34;;;;;;;;;;;11.60;78.30;;;10.59;nan;96727.94;5053760;28;19921;-84
2022/10/24 11:42:04;;;;;;;;;;;11.60;78.30;;;10.58;nan;96729.84;5070161;28;19921;-84
2022/10/24 11:44:44;;;;;;;;;;;11.60;78.40;;;10.58;nan;96723.53;5069829;28;19920;-84
2022/10/24 11:47:37;;;;;;;;;;;11.60;78.50;;;10.57;nan;96724.63;5069998;28;19920;-84
2022/10/24 11:50:07;;;;;;;;;;;11.60;78.50;;;10.57;nan;96719.16;5070184;28;19920;-84
2022/10/24 11:52:38;;;;;;;;;;;11.60;78.50;;;10.55;nan;96715.84;5087034;28;19920;-84